sensor_id;sensor_type;location;lat;lon;timestamp;pressure;altitude;pressure_sealevel;temperature;humidity
36242;BME280;22283;42.748;12.732;2023-02-13T00:00:49;99789.00;;;-0.26;81.46
36242;BME280;22283;42.748;12.732;2023-02-13T00:05:50;99791.50;;;0.02;80.36
36242;BME280;22283;42.748;12.732;2023-02-13T00:10:51;99778.38;;;0.23;78.20
36242;BME280;22283;42.748;12.732;2023-02-13T00:15:58;99776.66;;;0.19;78.45
36242;BME280;22283;42.748;12.732;2023-02-13T00:21:02;99778.34;;;0.26;78.56
36242;BME280;22283;42.748;12.732;2023-02-13T00:26:09;99789.69;;;0.14;78.68
36242;BME280;22283;42.748;12.732;2023-02-13T00:31:12;99783.75;;;-0.15;80.23
36242;BME280;22283;42.748;12.732;2023-02-13T00:36:15;99792.47;;;-0.38;82.41
36242;BME280;22283;42.748;12.732;2023-02-13T00:41:18;99790.78;;;-0.46;84.13
36242;BME280;22283;42.748;12.732;2023-02-13T00:46:19;99792.47;;;-0.30;82.51
36242;BME280;22283;42.748;12.732;2023-02-13T00:51:20;99801.19;;;-0.59;84.32
36242;BME280;22283;42.748;12.732;2023-02-13T00:56:28;99800.34;;;-0.67;86.57
36242;BME280;22283;42.748;12.732;2023-02-13T01:01:28;99809.84;;;-0.72;87.15
36242;BME280;22283;42.748;12.732;2023-02-13T01:06:29;99815.06;;;-0.69;88.61
36242;BME280;22283;42.748;12.732;2023-02-13T01:11:30;99802.94;;;-0.91;89.25
36242;BME280;22283;42.748;12.732;2023-02-13T01:16:34;99805.53;;;-0.68;87.39
36242;BME280;22283;42.748;12.732;2023-02-13T01:21:34;99808.09;;;-0.52;85.28
36242;BME280;22283;42.748;12.732;2023-02-13T01:26:35;99819.41;;;-0.77;86.04
36242;BME280;22283;42.748;12.732;2023-02-13T01:31:36;99820.28;;;-0.75;88.88
36242;BME280;22283;42.748;12.732;2023-02-13T01:36:36;99829.81;;;-0.91;90.77
36242;BME280;22283;42.748;12.732;2023-02-13T01:41:37;99827.19;;;-1.08;92.04
36242;BME280;22283;42.748;12.732;2023-02-13T01:46:41;99850.50;;;-1.35;92.68
36242;BME280;22283;42.748;12.732;2023-02-13T01:51:43;99832.31;;;-1.54;93.39
36242;BME280;22283;42.748;12.732;2023-02-13T01:56:48;99840.09;;;-1.54;94.90
36242;BME280;22283;42.748;12.732;2023-02-13T02:01:50;99835.75;;;-1.52;95.66
36242;BME280;22283;42.748;12.732;2023-02-13T02:07:01;99834.06;;;-1.40;93.71
36242;BME280;22283;42.748;12.732;2023-02-13T02:12:10;99847.03;;;-1.50;94.45
36242;BME280;22283;42.748;12.732;2023-02-13T02:17:14;99832.31;;;-1.48;93.67
36242;BME280;22283;42.748;12.732;2023-02-13T02:32:59;99845.28;;;-1.43;93.78
36242;BME280;22283;42.748;12.732;2023-02-13T02:49:06;99859.84;;;-1.86;97.99
36242;BME280;22283;42.748;12.732;2023-02-13T02:55:06;99853.81;;;-1.90;98.93
36242;BME280;22283;42.748;12.732;2023-02-13T03:00:09;99856.41;;;-1.79;100.00
36242;BME280;22283;42.748;12.732;2023-02-13T03:05:43;99846.06;;;-1.76;100.00
36242;BME280;22283;42.748;12.732;2023-02-13T03:11:21;99842.53;;;-1.92;98.95
36242;BME280;22283;42.748;12.732;2023-02-13T03:16:40;99849.41;;;-2.05;100.00
36242;BME280;22283;42.748;12.732;2023-02-13T03:44:03;99856.28;;;-2.07;100.00
36242;BME280;22283;42.748;12.732;2023-02-13T03:49:12;99858.06;;;-2.06;100.00
36242;BME280;22283;42.748;12.732;2023-02-13T03:54:48;99864.94;;;-2.09;100.00
36242;BME280;22283;42.748;12.732;2023-02-13T04:00:12;99872.75;;;-2.00;100.00
36242;BME280;22283;42.748;12.732;2023-02-13T04:05:21;99847.69;;;-2.06;100.00
36242;BME280;22283;42.748;12.732;2023-02-13T04:10:26;99852.88;;;-2.00;100.00
36242;BME280;22283;42.748;12.732;2023-02-13T04:15:51;99865.03;;;-1.89;100.00
36242;BME280;22283;42.748;12.732;2023-02-13T04:20:54;99866.69;;;-2.04;100.00
36242;BME280;22283;42.748;12.732;2023-02-13T04:25:55;99876.19;;;-2.04;100.00
36242;BME280;22283;42.748;12.732;2023-02-13T04:30:57;99864.06;;;-2.11;100.00
36242;BME280;22283;42.748;12.732;2023-02-13T04:35:57;99864.09;;;-2.10;100.00
36242;BME280;22283;42.748;12.732;2023-02-13T04:40:58;99871.78;;;-2.25;100.00
36242;BME280;22283;42.748;12.732;2023-02-13T04:45:59;99865.66;;;-2.30;100.00
36242;BME280;22283;42.748;12.732;2023-02-13T04:50:59;99874.41;;;-2.17;100.00
36242;BME280;22283;42.748;12.732;2023-02-13T04:56:00;99875.28;;;-2.17;100.00
36242;BME280;22283;42.748;12.732;2023-02-13T05:01:01;99851.84;;;-2.32;100.00
36242;BME280;22283;42.748;12.732;2023-02-13T05:06:02;99886.41;;;-2.33;100.00
36242;BME280;22283;42.748;12.732;2023-02-13T05:11:02;99879.44;;;-2.39;100.00
36242;BME280;22283;42.748;12.732;2023-02-13T05:16:03;99893.19;;;-2.48;100.00
36242;BME280;22283;42.748;12.732;2023-02-13T05:21:04;99904.34;;;-2.61;100.00
36242;BME280;22283;42.748;12.732;2023-02-13T05:26:28;99911.19;;;-2.69;100.00
36242;BME280;22283;42.748;12.732;2023-02-13T05:31:29;99900.81;;;-2.69;100.00
36242;BME280;22283;42.748;12.732;2023-02-13T05:36:29;99903.50;;;-2.57;100.00
36242;BME280;22283;42.748;12.732;2023-02-13T05:41:30;99905.28;;;-2.53;100.00
36242;BME280;22283;42.748;12.732;2023-02-13T05:46:32;99906.09;;;-2.57;100.00
36242;BME280;22283;42.748;12.732;2023-02-13T05:51:33;99910.38;;;-2.59;100.00
36242;BME280;22283;42.748;12.732;2023-02-13T05:56:33;99923.31;;;-2.65;100.00
36242;BME280;22283;42.748;12.732;2023-02-13T06:01:34;99918.03;;;-2.77;100.00
36242;BME280;22283;42.748;12.732;2023-02-13T06:06:35;99936.16;;;-2.76;100.00
36242;BME280;22283;42.748;12.732;2023-02-13T06:11:36;99920.56;;;-2.79;100.00
36242;BME280;22283;42.748;12.732;2023-02-13T06:16:37;99938.75;;;-2.74;100.00
36242;BME280;22283;42.748;12.732;2023-02-13T06:21:37;99941.47;;;-2.60;100.00
36242;BME280;22283;42.748;12.732;2023-02-13T06:26:38;99943.31;;;-2.49;100.00
36242;BME280;22283;42.748;12.732;2023-02-13T06:31:38;99939.78;;;-2.55;100.00
36242;BME280;22283;42.748;12.732;2023-02-13T06:36:39;99945.06;;;-2.43;100.00
36242;BME280;22283;42.748;12.732;2023-02-13T06:41:42;99957.22;;;-2.37;100.00
36242;BME280;22283;42.748;12.732;2023-02-13T06:46:42;99968.59;;;-2.20;100.00
36242;BME280;22283;42.748;12.732;2023-02-13T06:51:43;99965.09;;;-2.25;100.00
36242;BME280;22283;42.748;12.732;2023-02-13T06:56:43;99966.88;;;-2.15;100.00
36242;BME280;22283;42.748;12.732;2023-02-13T07:01:44;99976.75;;;-1.65;100.00
36242;BME280;22283;42.748;12.732;2023-02-13T07:06:44;99976.09;;;-1.12;100.00
36242;BME280;22283;42.748;12.732;2023-02-13T07:11:45;99977.09;;;-0.56;98.30
36242;BME280;22283;42.748;12.732;2023-02-13T07:16:46;99971.91;;;-0.01;91.76
36242;BME280;22283;42.748;12.732;2023-02-13T07:21:46;99979.66;;;0.37;88.57
36242;BME280;22283;42.748;12.732;2023-02-13T07:26:47;99969.13;;;0.74;84.41
36242;BME280;22283;42.748;12.732;2023-02-13T07:31:47;99969.13;;;0.71;85.32
36242;BME280;22283;42.748;12.732;2023-02-13T07:36:48;99980.41;;;0.78;85.49
36242;BME280;22283;42.748;12.732;2023-02-13T07:41:50;99984.75;;;0.77;85.85
36242;BME280;22283;42.748;12.732;2023-02-13T07:46:51;99989.84;;;0.98;86.05
36242;BME280;22283;42.748;12.732;2023-02-13T07:51:52;99986.16;;;1.39;83.54
36242;BME280;22283;42.748;12.732;2023-02-13T07:56:55;99983.31;;;1.73;81.33
36242;BME280;22283;42.748;12.732;2023-02-13T08:01:55;99973.50;;;2.03;80.36
36242;BME280;22283;42.748;12.732;2023-02-13T08:06:56;99981.09;;;2.27;79.60
36242;BME280;22283;42.748;12.732;2023-02-13T08:11:57;99977.38;;;2.48;79.13
36242;BME280;22283;42.748;12.732;2023-02-13T08:16:58;99984.84;;;2.80;77.15
36242;BME280;22283;42.748;12.732;2023-02-13T08:22:00;99979.22;;;3.14;76.57
36242;BME280;22283;42.748;12.732;2023-02-13T08:27:01;99977.06;;;3.42;75.73
36242;BME280;22283;42.748;12.732;2023-02-13T08:32:02;99979.97;;;3.79;71.86
36242;BME280;22283;42.748;12.732;2023-02-13T08:37:02;99979.41;;;4.13;69.43
36242;BME280;22283;42.748;12.732;2023-02-13T08:42:03;99982.31;;;4.46;66.57
36242;BME280;22283;42.748;12.732;2023-02-13T08:47:04;99992.28;;;4.73;65.22
36242;BME280;22283;42.748;12.732;2023-02-13T08:52:05;99982.88;;;5.05;63.19
36242;BME280;22283;42.748;12.732;2023-02-13T08:57:05;99984.06;;;5.30;62.23
36242;BME280;22283;42.748;12.732;2023-02-13T09:02:09;99977.69;;;5.42;60.79
36242;BME280;22283;42.748;12.732;2023-02-13T09:07:10;99976.25;;;5.66;59.61
36242;BME280;22283;42.748;12.732;2023-02-13T09:12:11;99969.75;;;5.82;58.58
36242;BME280;22283;42.748;12.732;2023-02-13T09:17:12;99984.88;;;6.08;58.63
36242;BME280;22283;42.748;12.732;2023-02-13T09:22:17;99981.47;;;6.39;58.22
36242;BME280;22283;42.748;12.732;2023-02-13T09:27:18;99979.09;;;6.62;56.73
36242;BME280;22283;42.748;12.732;2023-02-13T09:32:18;99976.81;;;6.81;55.18
36242;BME280;22283;42.748;12.732;2023-02-13T09:37:19;99971.19;;;6.94;54.25
36242;BME280;22283;42.748;12.732;2023-02-13T09:42:32;99985.56;;;7.11;54.79
36242;BME280;22283;42.748;12.732;2023-02-13T09:47:38;99978.06;;;7.29;55.72
36242;BME280;22283;42.748;12.732;2023-02-13T09:52:43;99982.13;;;7.39;55.80
36242;BME280;22283;42.748;12.732;2023-02-13T09:57:52;99982.81;;;7.44;56.23
36242;BME280;22283;42.748;12.732;2023-02-13T10:08:20;99967.53;;;7.57;53.55
36242;BME280;22283;42.748;12.732;2023-02-13T10:19:22;99961.41;;;7.83;51.82
36242;BME280;22283;42.748;12.732;2023-02-13T10:25:07;99963.78;;;8.17;51.45
36242;BME280;22283;42.748;12.732;2023-02-13T10:30:29;99954.31;;;8.36;50.57
36242;BME280;22283;42.748;12.732;2023-02-13T10:35:34;99956.97;;;8.36;50.07
36242;BME280;22283;42.748;12.732;2023-02-13T10:40:38;99959.31;;;8.46;50.09
36242;BME280;22283;42.748;12.732;2023-02-13T10:51:08;99954.13;;;8.68;50.50
36242;BME280;22283;42.748;12.732;2023-02-13T10:56:52;99954.00;;;8.71;49.95
36242;BME280;22283;42.748;12.732;2023-02-13T11:07:20;99935.03;;;8.84;49.36
36242;BME280;22283;42.748;12.732;2023-02-13T11:12:24;99929.28;;;8.97;48.87
36242;BME280;22283;42.748;12.732;2023-02-13T11:17:29;99926.53;;;9.00;48.05
36242;BME280;22283;42.748;12.732;2023-02-13T11:22:33;99918.19;;;9.10;47.99
36242;BME280;22283;42.748;12.732;2023-02-13T11:27:38;99907.88;;;9.26;47.56
36242;BME280;22283;42.748;12.732;2023-02-13T11:32:39;99901.25;;;9.38;47.54
36242;BME280;22283;42.748;12.732;2023-02-13T11:37:39;99890.03;;;9.55;47.76
36242;BME280;22283;42.748;12.732;2023-02-13T11:42:41;99889.41;;;9.70;46.55
36242;BME280;22283;42.748;12.732;2023-02-13T11:47:42;99882.78;;;9.80;45.94
36242;BME280;22283;42.748;12.732;2023-02-13T11:52:43;99878.03;;;9.89;43.69
36242;BME280;22283;42.748;12.732;2023-02-13T11:58:20;99866.56;;;10.10;44.57
36242;BME280;22283;42.748;12.732;2023-02-13T12:03:26;99852.59;;;10.27;44.10
36242;BME280;22283;42.748;12.732;2023-02-13T12:08:28;99854.78;;;10.38;43.47
36242;BME280;22283;42.748;12.732;2023-02-13T12:13:35;99857.22;;;10.42;42.04
36242;BME280;22283;42.748;12.732;2023-02-13T12:18:41;99852.50;;;10.49;41.54
36242;BME280;22283;42.748;12.732;2023-02-13T12:50:31;99813.69;;;11.04;38.85
36242;BME280;22283;42.748;12.732;2023-02-13T13:06:39;99792.00;;;11.15;37.74
36242;BME280;22283;42.748;12.732;2023-02-13T13:22:34;99782.31;;;11.33;37.66
36242;BME280;22283;42.748;12.732;2023-02-13T13:27:45;99775.97;;;11.36;37.57
36242;BME280;22283;42.748;12.732;2023-02-13T13:32:53;99775.97;;;11.36;37.53
36242;BME280;22283;42.748;12.732;2023-02-13T13:38:13;99776.91;;;11.35;38.04
36242;BME280;22283;42.748;12.732;2023-02-13T13:54:34;99783.31;;;11.65;36.08
36242;BME280;22283;42.748;12.732;2023-02-13T14:04:38;99772.69;;;11.48;37.36
36242;BME280;22283;42.748;12.732;2023-02-13T14:09:42;99769.59;;;11.57;37.01
36242;BME280;22283;42.748;12.732;2023-02-13T14:14:44;99775.91;;;11.54;36.54
36242;BME280;22283;42.748;12.732;2023-02-13T14:19:50;99777.69;;;11.54;36.86
36242;BME280;22283;42.748;12.732;2023-02-13T14:24:59;99774.19;;;11.53;36.60
36242;BME280;22283;42.748;12.732;2023-02-13T14:30:00;99774.28;;;11.69;37.24
36242;BME280;22283;42.748;12.732;2023-02-13T14:35:05;99778.31;;;11.59;37.25
36242;BME280;22283;42.748;12.732;2023-02-13T14:45:17;99760.22;;;11.67;37.17
36242;BME280;22283;42.748;12.732;2023-02-13T14:50:26;99764.38;;;11.73;37.07
36242;BME280;22283;42.748;12.732;2023-02-13T14:55:34;99761.06;;;11.68;37.87
36242;BME280;22283;42.748;12.732;2023-02-13T15:05:39;99753.69;;;11.57;38.42
36242;BME280;22283;42.748;12.732;2023-02-13T15:10:45;99753.75;;;11.55;38.84
36242;BME280;22283;42.748;12.732;2023-02-13T15:15:59;99755.56;;;11.55;39.47
36242;BME280;22283;42.748;12.732;2023-02-13T15:21:00;99756.66;;;11.33;40.13
36242;BME280;22283;42.748;12.732;2023-02-13T15:26:04;99753.53;;;11.43;40.67
36242;BME280;22283;42.748;12.732;2023-02-13T15:31:20;99763.19;;;11.44;41.21
36242;BME280;22283;42.748;12.732;2023-02-13T15:36:24;99759.78;;;11.42;41.42
36242;BME280;22283;42.748;12.732;2023-02-13T15:41:33;99762.91;;;11.32;41.96
36242;BME280;22283;42.748;12.732;2023-02-13T15:46:36;99756.41;;;11.21;42.43
36242;BME280;22283;42.748;12.732;2023-02-13T15:51:40;99762.97;;;10.95;42.78
36242;BME280;22283;42.748;12.732;2023-02-13T15:56:43;99762.25;;;10.55;44.35
36242;BME280;22283;42.748;12.732;2023-02-13T16:01:48;99761.03;;;10.04;45.66
36242;BME280;22283;42.748;12.732;2023-02-13T16:06:51;99761.34;;;9.57;47.21
36242;BME280;22283;42.748;12.732;2023-02-13T16:11:58;99771.25;;;9.09;48.61
36242;BME280;22283;42.748;12.732;2023-02-13T16:17:03;99782.66;;;8.66;49.99
36242;BME280;22283;42.748;12.732;2023-02-13T16:27:31;99801.06;;;7.96;52.24
36242;BME280;22283;42.748;12.732;2023-02-13T16:32:34;99796.47;;;7.77;53.08
36242;BME280;22283;42.748;12.732;2023-02-13T16:37:49;99795.31;;;7.34;54.38
36242;BME280;22283;42.748;12.732;2023-02-13T16:42:50;99807.91;;;6.98;56.01
36242;BME280;22283;42.748;12.732;2023-02-13T16:48:00;99812.78;;;6.53;57.33
36242;BME280;22283;42.748;12.732;2023-02-13T16:53:03;99825.66;;;6.32;58.03
36242;BME280;22283;42.748;12.732;2023-02-13T16:58:04;99812.59;;;6.29;57.64
36242;BME280;22283;42.748;12.732;2023-02-13T17:03:07;99815.06;;;6.04;59.05
36242;BME280;22283;42.748;12.732;2023-02-13T17:08:08;99826.41;;;6.06;59.03
36242;BME280;22283;42.748;12.732;2023-02-13T17:13:15;99824.03;;;5.97;59.49
36242;BME280;22283;42.748;12.732;2023-02-13T17:18:18;99835.03;;;5.77;60.23
36242;BME280;22283;42.748;12.732;2023-02-13T17:23:23;99843.47;;;5.56;60.97
36242;BME280;22283;42.748;12.732;2023-02-13T17:28:25;99854.91;;;5.17;62.58
36242;BME280;22283;42.748;12.732;2023-02-13T17:33:29;99863.47;;;4.88;63.73
36242;BME280;22283;42.748;12.732;2023-02-13T17:38:29;99862.72;;;4.82;64.21
36242;BME280;22283;42.748;12.732;2023-02-13T17:43:30;99871.88;;;4.64;65.27
36242;BME280;22283;42.748;12.732;2023-02-13T17:48:32;99878.28;;;4.49;65.88
36242;BME280;22283;42.748;12.732;2023-02-13T17:53:33;99881.75;;;4.50;66.34
36242;BME280;22283;42.748;12.732;2023-02-13T17:58:34;99877.91;;;4.67;64.58
36242;BME280;22283;42.748;12.732;2023-02-13T18:03:35;99885.59;;;4.33;66.05
36242;BME280;22283;42.748;12.732;2023-02-13T18:08:35;99885.22;;;4.08;67.35
36242;BME280;22283;42.748;12.732;2023-02-13T18:13:36;99891.41;;;4.03;68.13
36242;BME280;22283;42.748;12.732;2023-02-13T18:18:37;99885.50;;;3.91;68.31
36242;BME280;22283;42.748;12.732;2023-02-13T18:23:37;99885.50;;;3.93;68.55
36242;BME280;22283;42.748;12.732;2023-02-13T18:28:38;99892.06;;;4.14;67.40
36242;BME280;22283;42.748;12.732;2023-02-13T18:33:38;99894.97;;;4.00;68.23
36242;BME280;22283;42.748;12.732;2023-02-13T18:38:39;99889.25;;;3.78;69.70
36242;BME280;22283;42.748;12.732;2023-02-13T18:43:40;99896.41;;;3.67;70.51
36242;BME280;22283;42.748;12.732;2023-02-13T18:48:40;99887.69;;;3.66;70.87
36242;BME280;22283;42.748;12.732;2023-02-13T18:53:41;99883.78;;;3.90;69.40
36242;BME280;22283;42.748;12.732;2023-02-13T18:58:41;99880.16;;;3.98;68.56
36242;BME280;22283;42.748;12.732;2023-02-13T19:03:42;99894.38;;;3.84;69.28
36242;BME280;22283;42.748;12.732;2023-02-13T19:08:43;99894.91;;;3.54;71.04
36242;BME280;22283;42.748;12.732;2023-02-13T19:13:45;99891.03;;;3.22;73.06
36242;BME280;22283;42.748;12.732;2023-02-13T19:18:50;99885.25;;;3.02;75.16
36242;BME280;22283;42.748;12.732;2023-02-13T19:23:52;99888.91;;;2.88;76.61
36242;BME280;22283;42.748;12.732;2023-02-13T19:28:54;99898.56;;;2.83;77.82
36242;BME280;22283;42.748;12.732;2023-02-13T19:33:55;99888.97;;;2.84;78.19
36242;BME280;22283;42.748;12.732;2023-02-13T19:38:58;99889.97;;;2.75;79.03
36242;BME280;22283;42.748;12.732;2023-02-13T19:43:59;99896.28;;;2.59;80.33
36242;BME280;22283;42.748;12.732;2023-02-13T19:49:00;99907.56;;;2.61;80.48
36242;BME280;22283;42.748;12.732;2023-02-13T19:54:04;99912.06;;;2.50;81.74
36242;BME280;22283;42.748;12.732;2023-02-13T19:59:07;99908.72;;;2.38;82.69
36242;BME280;22283;42.748;12.732;2023-02-13T20:04:11;99917.56;;;2.25;84.08
36242;BME280;22283;42.748;12.732;2023-02-13T20:09:13;99922.00;;;2.18;84.98
36242;BME280;22283;42.748;12.732;2023-02-13T20:14:13;99922.00;;;2.17;85.96
36242;BME280;22283;42.748;12.732;2023-02-13T20:19:14;99938.56;;;2.13;86.52
36242;BME280;22283;42.748;12.732;2023-02-13T20:24:15;99944.88;;;1.92;87.68
36242;BME280;22283;42.748;12.732;2023-02-13T20:29:16;99938.03;;;1.79;89.21
36242;BME280;22283;42.748;12.732;2023-02-13T20:34:16;99957.16;;;1.81;89.99
36242;BME280;22283;42.748;12.732;2023-02-13T20:39:17;99952.81;;;1.78;90.73
36242;BME280;22283;42.748;12.732;2023-02-13T20:44:18;99958.94;;;1.76;90.87
36242;BME280;22283;42.748;12.732;2023-02-13T20:49:19;99962.41;;;1.76;90.60
36242;BME280;22283;42.748;12.732;2023-02-13T20:54:21;99957.38;;;1.52;91.46
36242;BME280;22283;42.748;12.732;2023-02-13T20:59:22;99967.03;;;1.40;93.47
36242;BME280;22283;42.748;12.732;2023-02-13T21:04:22;99965.38;;;1.27;94.63
36242;BME280;22283;42.748;12.732;2023-02-13T21:09:23;99968.91;;;1.20;95.78
36242;BME280;22283;42.748;12.732;2023-02-13T21:14:24;99955.91;;;1.15;97.46
36242;BME280;22283;42.748;12.732;2023-02-13T21:19:24;99954.81;;;1.42;95.12
36242;BME280;22283;42.748;12.732;2023-02-13T21:24:25;99965.34;;;1.30;94.68
36242;BME280;22283;42.748;12.732;2023-02-13T21:29:25;99957.69;;;1.07;96.53
36242;BME280;22283;42.748;12.732;2023-02-13T21:34:26;99959.44;;;0.97;98.54
36242;BME280;22283;42.748;12.732;2023-02-13T21:39:27;99949.09;;;0.79;99.52
36242;BME280;22283;42.748;12.732;2023-02-13T21:44:28;99957.81;;;0.75;100.00
36242;BME280;22283;42.748;12.732;2023-02-13T21:49:28;99958.69;;;0.74;100.00
36242;BME280;22283;42.748;12.732;2023-02-13T21:54:29;99953.50;;;0.76;100.00
36242;BME280;22283;42.748;12.732;2023-02-13T21:59:29;99956.91;;;0.79;100.00
36242;BME280;22283;42.748;12.732;2023-02-13T22:04:30;99957.81;;;0.73;100.00
36242;BME280;22283;42.748;12.732;2023-02-13T22:09:31;99959.59;;;0.71;100.00
36242;BME280;22283;42.748;12.732;2023-02-13T22:14:31;99964.84;;;0.64;100.00
36242;BME280;22283;42.748;12.732;2023-02-13T22:19:32;99964.84;;;0.58;100.00
36242;BME280;22283;42.748;12.732;2023-02-13T22:24:32;99965.69;;;0.55;100.00
36242;BME280;22283;42.748;12.732;2023-02-13T22:29:33;99967.47;;;0.48;100.00
36242;BME280;22283;42.748;12.732;2023-02-13T22:34:34;99977.91;;;0.48;100.00
36242;BME280;22283;42.748;12.732;2023-02-13T22:39:34;99970.97;;;0.41;100.00
36242;BME280;22283;42.748;12.732;2023-02-13T22:44:35;99975.31;;;0.32;100.00
36242;BME280;22283;42.748;12.732;2023-02-13T22:49:35;99972.72;;;0.27;100.00
36242;BME280;22283;42.748;12.732;2023-02-13T22:54:36;99972.75;;;0.22;100.00
36242;BME280;22283;42.748;12.732;2023-02-13T22:59:37;99975.34;;;0.22;100.00
36242;BME280;22283;42.748;12.732;2023-02-13T23:04:38;99975.34;;;0.15;100.00
36242;BME280;22283;42.748;12.732;2023-02-13T23:09:39;99977.94;;;0.12;100.00
36242;BME280;22283;42.748;12.732;2023-02-13T23:14:39;99971.03;;;0.11;100.00
36242;BME280;22283;42.748;12.732;2023-02-13T23:19:40;99961.47;;;0.04;100.00
36242;BME280;22283;42.748;12.732;2023-02-13T23:24:40;99951.97;;;-0.04;100.00
36242;BME280;22283;42.748;12.732;2023-02-13T23:29:41;99960.63;;;0.05;100.00
36242;BME280;22283;42.748;12.732;2023-02-13T23:34:42;99965.84;;;-0.11;100.00
36242;BME280;22283;42.748;12.732;2023-02-13T23:39:42;99955.44;;;-0.18;100.00
36242;BME280;22283;42.748;12.732;2023-02-13T23:44:43;99956.31;;;-0.21;100.00
36242;BME280;22283;42.748;12.732;2023-02-13T23:49:44;99942.44;;;-0.18;100.00
36242;BME280;22283;42.748;12.732;2023-02-13T23:54:44;99954.59;;;-0.30;100.00
36242;BME280;22283;42.748;12.732;2023-02-13T23:59:45;99943.31;;;-0.27;100.00
